Time;durP1;ratioP1;P1;durP2;ratioP2;P2;SDS_P1;SDS_P2;PMS_P1;PMS_P2;Temp;Humidity;BMP_temperature;BMP_pressure;BME280_temperature;BME280_humidity;BME280_pressure;Samples;Min_cycle;Max_cycle;Signal;HPM_P1;HPM_P2
2022/08/14 00:00:09;;;;;;;;;;;;;;;19.47;77.84;99778.83;1431267;89;20319;-80
2022/08/14 00:02:35;;;;;;;;;;;;;;;19.43;76.65;99778.98;1433579;89;20305;-80
2022/08/14 00:05:01;;;;;;;;;;;;;;;19.38;77.96;99772.92;1437281;91;20346;-79
2022/08/14 00:07:27;;;;;;;;;;;;;;;19.36;78.07;99769.63;1435702;91;20440;-80
2022/08/14 00:09:53;;;;;;;;;;;;;;;19.31;79.44;99771.66;1429555;91;20351;-80
2022/08/14 00:12:19;;;;;;;;;;;;;;;19.26;79.53;99778.20;1434432;91;20402;-79
2022/08/14 00:14:45;;;;;;;;;;;;;;;19.21;79.63;99774.00;1438147;91;20335;-79
2022/08/14 00:17:11;;;;;;;;;;;;;;;19.14;79.70;99771.39;1435192;89;20374;-80
2022/08/14 00:19:37;;;;;;;;;;;;;;;19.11;79.82;99773.70;1441946;89;20351;-79
2022/08/14 00:22:03;;;;;;;;;;;;;;;19.08;80.62;99770.11;1434718;91;20425;-79
2022/08/14 00:24:29;;;;;;;;;;;;;;;19.03;80.89;99768.60;1436915;91;20425;-78
2022/08/14 00:26:57;;;;;;;;;;;;;;;18.97;81.36;99768.14;1439814;91;20335;-78
2022/08/14 00:29:23;;;;;;;;;;;;;;;18.94;80.72;99763.50;1440293;89;20262;-78
2022/08/14 00:31:49;;;;;;;;;;;;;;;18.94;80.74;99761.34;1432719;89;21005;-79
2022/08/14 00:34:15;;;;;;;;;;;;;;;18.93;82.21;99764.55;1430238;89;20372;-80
2022/08/14 00:36:40;;;;;;;;;;;;;;;18.92;82.71;99762.08;1435184;91;20342;-80
2022/08/14 00:39:09;;;;;;;;;;;;;;;18.90;82.14;99760.97;1438513;90;20290;-78
2022/08/14 00:41:34;;;;;;;;;;;;;;;18.91;80.95;99761.27;1455145;90;20334;-78
2022/08/14 00:44:00;;;;;;;;;;;;;;;18.93;82.51;99755.17;1445804;90;20885;-78
2022/08/14 00:46:26;;;;;;;;;;;;;;;18.90;83.28;99751.59;1452808;90;20319;-78
2022/08/14 00:48:52;;;;;;;;;;;;;;;18.87;82.90;99753.86;1451154;90;21468;-78
2022/08/14 00:51:20;;;;;;;;;;;;;;;18.83;83.48;99753.48;1454519;90;20304;-78
2022/08/14 00:53:49;;;;;;;;;;;;;;;18.82;83.19;99754.53;1445783;90;20319;-78
2022/08/14 00:56:14;;;;;;;;;;;;;;;18.81;84.11;99755.55;1462155;90;20364;-78
2022/08/14 00:58:40;;;;;;;;;;;;;;;18.82;83.29;99751.04;1457820;90;20342;-78
2022/08/14 01:01:09;;;;;;;;;;;;;;;18.83;82.31;99747.30;1440339;90;20885;-78
2022/08/14 01:03:38;;;;;;;;;;;;;;;18.82;84.19;99749.17;1452451;90;20326;-78
2022/08/14 01:06:07;;;;;;;;;;;;;;;18.83;83.49;99747.30;1450723;90;20848;-78
2022/08/14 01:08:34;;;;;;;;;;;;;;;18.82;84.72;99746.49;1450146;90;20357;-78
2022/08/14 01:11:00;;;;;;;;;;;;;;;18.82;84.68;99750.52;1456740;90;20531;-78
2022/08/14 01:13:31;;;;;;;;;;;;;;;18.83;83.50;99755.34;1460120;90;20334;-78
2022/08/14 01:16:00;;;;;;;;;;;;;;;18.83;83.61;99754.83;1444315;90;20591;-78
2022/08/14 01:21:16;;;;;;;;;;;;;;;18.81;82.77;99756.08;1453599;90;20304;-79
2022/08/14 01:23:45;;;;;;;;;;;;;;;18.76;84.54;99759.92;1449289;90;20430;-79
2022/08/14 01:26:13;;;;;;;;;;;;;;;18.71;84.27;99760.56;1457280;90;20356;-79
2022/08/14 01:28:39;;;;;;;;;;;;;;;18.66;84.93;99763.06;1449388;90;20334;-78
2022/08/14 01:31:08;;;;;;;;;;;;;;;18.58;85.54;99765.47;1451789;90;20371;-79
2022/08/14 01:33:39;;;;;;;;;;;;;;;18.54;85.38;99763.45;1443378;90;20356;-78
2022/08/14 01:36:03;;;;;;;;;;;;;;;18.46;86.17;99764.00;1453914;89;20260;-79
2022/08/14 01:38:33;;;;;;;;;;;;;;;18.40;86.81;99764.86;1447066;90;20365;-79
2022/08/14 01:40:57;;;;;;;;;;;;;;;18.36;87.24;99763.66;1448126;90;20304;-78
2022/08/14 01:43:29;;;;;;;;;;;;;;;18.33;87.82;99768.64;1449675;90;20875;-78
2022/08/14 01:45:52;;;;;;;;;;;;;;;18.29;87.84;99768.22;1452467;89;20327;-78
2022/08/14 01:48:18;;;;;;;;;;;;;;;18.28;88.17;99769.27;1452855;90;20393;-78
2022/08/14 01:50:44;;;;;;;;;;;;;;;18.28;89.27;99761.23;1447747;90;20341;-78
2022/08/14 01:53:10;;;;;;;;;;;;;;;18.27;89.51;99766.30;1445240;90;20334;-78
2022/08/14 01:55:38;;;;;;;;;;;;;;;18.26;88.59;99761.42;1446093;90;20283;-78
2022/08/14 01:58:04;;;;;;;;;;;;;;;18.27;88.71;99763.62;1452520;90;20349;-79
2022/08/14 02:00:30;;;;;;;;;;;;;;;18.26;89.79;99756.07;1448574;90;20320;-80
2022/08/14 02:02:57;;;;;;;;;;;;;;;18.30;88.88;99759.17;1440349;89;20411;-79
2022/08/14 02:05:28;;;;;;;;;;;;;;;18.29;89.44;99756.16;1429493;91;20416;-79
2022/08/14 02:07:55;;;;;;;;;;;;;;;18.31;89.15;99760.80;1437080;89;20368;-79
2022/08/14 02:10:21;;;;;;;;;;;;;;;18.32;88.25;99762.43;1439878;89;20339;-79
2022/08/14 02:12:48;;;;;;;;;;;;;;;18.32;88.96;99755.73;1444919;90;20358;-79
2022/08/14 02:15:20;;;;;;;;;;;;;;;18.33;88.51;99753.91;1463375;90;20284;-78
2022/08/14 02:17:42;;;;;;;;;;;;;;;18.31;88.86;99752.77;1452599;90;20392;-79
2022/08/14 02:20:08;;;;;;;;;;;;;;;18.27;89.52;99748.88;1447048;90;20410;-79
2022/08/14 02:22:35;;;;;;;;;;;;;;;18.21;89.78;99752.39;1458130;90;20388;-79
2022/08/14 02:25:01;;;;;;;;;;;;;;;18.16;89.21;99751.71;1436788;90;20494;-79
2022/08/14 02:27:28;;;;;;;;;;;;;;;18.17;89.13;99749.33;1444901;90;20887;-79
2022/08/14 02:29:55;;;;;;;;;;;;;;;18.17;89.36;99746.65;1445289;90;20300;-79
2022/08/14 02:32:21;;;;;;;;;;;;;;;18.16;90.76;99745.54;1438220;90;20331;-79
2022/08/14 02:34:47;;;;;;;;;;;;;;;18.14;90.49;99751.61;1443652;90;20293;-79
2022/08/14 02:37:14;;;;;;;;;;;;;;;18.11;90.86;99751.52;1445869;90;20226;-79
2022/08/14 02:39:43;;;;;;;;;;;;;;;18.09;90.98;99752.77;1448103;90;20392;-79
2022/08/14 02:42:12;;;;;;;;;;;;;;;18.04;92.06;99750.74;1430646;90;20912;-79
2022/08/14 02:44:40;;;;;;;;;;;;;;;18.05;91.46;99753.72;1433530;90;20375;-79
2022/08/14 02:47:07;;;;;;;;;;;;;;;18.03;93.03;99747.75;1442316;90;20300;-79
2022/08/14 02:49:34;;;;;;;;;;;;;;;18.02;93.09;99750.94;1442263;90;20324;-79
2022/08/14 02:52:00;;;;;;;;;;;;;;;18.03;92.55;99743.73;1430451;90;20382;-80
2022/08/14 02:54:26;;;;;;;;;;;;;;;18.05;92.19;99748.36;1430307;91;20431;-79
2022/08/14 02:56:55;;;;;;;;;;;;;;;18.07;91.57;99748.13;1436627;91;20469;-79
2022/08/14 02:59:23;;;;;;;;;;;;;;;18.07;91.21;99745.45;1428302;91;20454;-79
2022/08/14 03:01:49;;;;;;;;;;;;;;;18.09;91.62;99746.89;1432432;91;21737;-78
2022/08/14 03:04:16;;;;;;;;;;;;;;;18.12;91.48;99744.30;1410409;91;20430;-78
2022/08/14 03:06:42;;;;;;;;;;;;;;;18.14;91.87;99748.94;1454893;89;20321;-79
2022/08/14 03:09:10;;;;;;;;;;;;;;;18.12;91.28;99752.34;1467462;89;20374;-79
2022/08/14 03:11:36;;;;;;;;;;;;;;;18.12;91.52;99745.64;1464312;89;20292;-79
2022/08/14 03:14:03;;;;;;;;;;;;;;;18.14;91.21;99740.91;1457789;89;20336;-79
2022/08/14 03:16:34;;;;;;;;;;;;;;;18.17;90.44;99748.52;1462284;89;20896;-79
2022/08/14 03:18:59;;;;;;;;;;;;;;;18.20;90.04;99743.54;1463846;89;20822;-78
2022/08/14 03:21:25;;;;;;;;;;;;;;;18.23;90.30;99742.30;1466471;89;20913;-78
2022/08/14 03:24:05;;;;;;;;;;;;;;;18.22;90.89;99738.80;1466181;89;20308;-78
2022/08/14 03:26:23;;;;;;;;;;;;;;;18.24;90.90;99745.27;1463273;89;20385;-79
2022/08/14 03:28:50;;;;;;;;;;;;;;;18.25;90.46;99744.25;1449777;89;20403;-79
2022/08/14 03:31:22;;;;;;;;;;;;;;;18.27;90.00;99752.91;1463541;89;20300;-79
2022/08/14 03:33:45;;;;;;;;;;;;;;;18.26;90.06;99749.90;1466960;89;20299;-78
2022/08/14 03:36:13;;;;;;;;;;;;;;;18.28;89.35;99747.84;1430513;91;20382;-78
2022/08/14 03:38:42;;;;;;;;;;;;;;;18.30;88.94;99758.32;1436138;91;20293;-78
2022/08/14 03:41:15;;;;;;;;;;;;;;;18.27;90.28;99758.26;1429805;91;20893;-81
2022/08/14 03:43:42;;;;;;;;;;;;;;;18.25;91.51;99761.14;1434114;91;20382;-82
2022/08/14 03:46:10;;;;;;;;;;;;;;;18.26;90.63;99761.95;1437851;90;20374;-82
2022/08/14 03:48:38;;;;;;;;;;;;;;;18.28;90.30;99766.59;1436369;91;20336;-83
2022/08/14 03:51:07;;;;;;;;;;;;;;;18.29;89.91;99762.05;1420619;91;20294;-82
2022/08/14 03:53:36;;;;;;;;;;;;;;;18.29;89.92;99756.16;1448409;90;20264;-81
2022/08/14 03:56:01;;;;;;;;;;;;;;;18.30;90.42;99763.19;1447610;90;20261;-81
2022/08/14 03:58:28;;;;;;;;;;;;;;;18.29;89.64;99768.22;1435358;91;20405;-81
2022/08/14 04:00:54;;;;;;;;;;;;;;;18.31;89.68;99766.16;1440499;91;20914;-81
2022/08/14 04:03:23;;;;;;;;;;;;;;;18.31;90.00;99767.50;1434850;90;20342;-81
2022/08/14 04:05:48;;;;;;;;;;;;;;;18.32;89.93;99773.14;1431821;91;20375;-82
2022/08/14 04:08:14;;;;;;;;;;;;;;;18.31;90.68;99774.72;1431927;91;20392;-81
2022/08/14 04:10:39;;;;;;;;;;;;;;;18.28;90.28;99775.96;1433609;89;20315;-82
2022/08/14 04:13:05;;;;;;;;;;;;;;;18.24;90.20;99778.74;1436277;91;20762;-81
2022/08/14 04:15:32;;;;;;;;;;;;;;;18.21;89.65;99771.98;1432928;89;20293;-81
2022/08/14 04:18:05;;;;;;;;;;;;;;;18.23;90.00;99772.57;1429244;89;20323;-81
2022/08/14 04:20:31;;;;;;;;;;;;;;;18.24;90.27;99776.06;1434656;89;20338;-82
2022/08/14 04:22:57;;;;;;;;;;;;;;;18.22;90.87;99777.63;1428663;91;20327;-82
2022/08/14 04:25:23;;;;;;;;;;;;;;;18.22;90.53;99772.80;1433159;91;20565;-82
2022/08/14 04:27:49;;;;;;;;;;;;;;;18.23;91.26;99769.89;1434392;89;20336;-82
2022/08/14 04:30:15;;;;;;;;;;;;;;;18.24;91.56;99768.03;1431714;91;20278;-82
2022/08/14 04:32:41;;;;;;;;;;;;;;;18.26;91.09;99764.63;1433534;89;20356;-82
2022/08/14 04:35:09;;;;;;;;;;;;;;;18.31;91.84;99763.48;1435114;91;20295;-82
2022/08/14 04:45:48;;;;;;;;;;;;;;;18.60;90.14;99777.33;1430607;89;20885;-82
2022/08/14 04:48:16;;;;;;;;;;;;;;;18.72;91.07;99780.95;1432986;90;20271;-82
2022/08/14 04:50:50;;;;;;;;;;;;;;;18.82;90.46;99781.34;1431221;89;20327;-82
2022/08/14 04:53:19;;;;;;;;;;;;;;;18.90;91.09;99783.77;1435330;91;20312;-82
2022/08/14 04:55:48;;;;;;;;;;;;;;;19.02;90.90;99783.88;1431866;91;20285;-82
2022/08/14 04:58:17;;;;;;;;;;;;;;;19.14;90.71;99771.91;1434162;89;20335;-84
2022/08/14 05:00:49;;;;;;;;;;;;;;;19.27;90.22;99770.44;1440214;90;20278;-83
2022/08/14 05:03:16;;;;;;;;;;;;;;;19.37;90.13;99776.14;1436965;89;20306;-82
2022/08/14 05:05:41;;;;;;;;;;;;;;;19.47;89.89;99774.80;1442463;91;21756;-81
2022/08/14 05:08:11;;;;;;;;;;;;;;;19.55;89.22;99769.16;1442315;89;20335;-82
2022/08/14 05:10:40;;;;;;;;;;;;;;;19.63;88.94;99774.23;1432889;91;20549;-82
2022/08/14 05:13:07;;;;;;;;;;;;;;;19.70;88.63;99775.00;1440168;89;20457;-83
2022/08/14 05:15:39;;;;;;;;;;;;;;;19.78;88.52;99777.39;1435749;89;20323;-82
2022/08/14 05:18:12;;;;;;;;;;;;;;;19.88;87.39;99784.09;1419378;92;20356;-83
2022/08/14 05:20:41;;;;;;;;;;;;;;;19.99;87.20;99780.67;1406951;91;20404;-83
2022/08/14 05:23:07;;;;;;;;;;;;;;;20.11;86.10;99778.89;1420635;92;20517;-83
2022/08/14 05:25:34;;;;;;;;;;;;;;;20.24;85.55;99782.73;1420724;92;20895;-83
2022/08/14 05:28:09;;;;;;;;;;;;;;;20.30;84.81;99779.66;1431524;91;20409;-83
2022/08/14 05:30:37;;;;;;;;;;;;;;;20.41;84.25;99783.45;1433623;91;20432;-85
2022/08/14 05:33:05;;;;;;;;;;;;;;;20.48;83.14;99790.89;1439422;89;20293;-84
2022/08/14 05:35:32;;;;;;;;;;;;;;;20.48;82.73;99788.20;1437395;89;20651;-84
2022/08/14 05:37:59;;;;;;;;;;;;;;;20.58;82.48;99794.42;1438845;89;20357;-83
2022/08/14 05:40:25;;;;;;;;;;;;;;;20.64;81.53;99793.50;1438226;89;20554;-84
2022/08/14 05:42:52;;;;;;;;;;;;;;;20.77;81.61;99787.09;1439261;89;21124;-84
2022/08/14 05:45:18;;;;;;;;;;;;;;;20.86;80.56;99791.09;1434129;89;20315;-85
2022/08/14 05:47:44;;;;;;;;;;;;;;;20.99;80.60;99788.20;1432443;89;21115;-84
2022/08/14 05:50:12;;;;;;;;;;;;;;;21.09;80.11;99780.89;1441560;90;20327;-85
2022/08/14 05:52:38;;;;;;;;;;;;;;;21.14;79.14;99782.37;1429792;91;20431;-84
2022/08/14 05:55:07;;;;;;;;;;;;;;;21.27;79.09;99780.00;1436713;91;20950;-84
2022/08/14 05:57:33;;;;;;;;;;;;;;;21.35;78.17;99782.34;1441591;91;20384;-84
2022/08/14 05:59:59;;;;;;;;;;;;;;;21.49;77.85;99787.81;1436736;89;20309;-84
2022/08/14 06:02:25;;;;;;;;;;;;;;;21.63;77.25;99789.72;1435759;89;20300;-85
2022/08/14 06:04:50;;;;;;;;;;;;;;;21.71;76.01;99785.86;1443208;89;20628;-82
2022/08/14 06:07:17;;;;;;;;;;;;;;;21.78;75.32;99789.23;1414511;92;20478;-81
2022/08/14 06:09:43;;;;;;;;;;;;;;;21.90;75.04;99785.20;1430647;91;20418;-81
2022/08/14 06:12:09;;;;;;;;;;;;;;;21.98;74.24;99781.60;1444077;90;20286;-83
2022/08/14 06:14:36;;;;;;;;;;;;;;;22.14;74.88;99787.29;1440988;91;20374;-83
2022/08/14 06:17:03;;;;;;;;;;;;;;;22.26;74.03;99787.55;1438545;91;20249;-85
2022/08/14 06:19:29;;;;;;;;;;;;;;;22.38;74.13;99779.42;1442751;91;20718;-84
2022/08/14 06:21:55;;;;;;;;;;;;;;;22.48;72.68;99783.67;1442598;91;20286;-82
2022/08/14 06:24:21;;;;;;;;;;;;;;;22.56;71.77;99785.67;1435921;91;21108;-81
2022/08/14 06:26:46;;;;;;;;;;;;;;;22.66;71.08;99780.48;1444557;91;20285;-84
2022/08/14 06:29:12;;;;;;;;;;;;;;;22.70;69.72;99782.46;1434860;91;20328;-83
2022/08/14 06:31:38;;;;;;;;;;;;;;;22.73;69.32;99784.67;1440761;91;20306;-83
2022/08/14 06:34:04;;;;;;;;;;;;;;;22.84;70.09;99781.59;1437243;91;20270;-83
2022/08/14 06:36:30;;;;;;;;;;;;;;;22.93;68.58;99785.55;1439427;91;20335;-81
2022/08/14 06:38:55;;;;;;;;;;;;;;;23.04;68.81;99785.73;1436855;91;20320;-80
2022/08/14 06:41:22;;;;;;;;;;;;;;;23.13;68.17;99781.05;1435889;91;20461;-80
2022/08/14 06:43:48;;;;;;;;;;;;;;;23.25;68.65;99775.56;1444985;91;20913;-81
2022/08/14 06:46:14;;;;;;;;;;;;;;;23.40;69.07;99773.08;1434274;91;20312;-81
2022/08/14 06:48:40;;;;;;;;;;;;;;;23.51;67.21;99777.29;1426788;91;20409;-82
2022/08/14 06:51:06;;;;;;;;;;;;;;;23.61;66.89;99773.36;1436083;91;20291;-82
2022/08/14 06:53:32;;;;;;;;;;;;;;;23.72;66.53;99763.55;1435013;91;20313;-83
2022/08/14 06:55:58;;;;;;;;;;;;;;;23.80;65.92;99766.63;1438948;91;20309;-83
2022/08/14 06:58:24;;;;;;;;;;;;;;;23.83;63.71;99764.78;1446904;91;20312;-84
2022/08/14 07:06:19;;;;;;;;;;;;;;;24.11;62.27;99758.91;1435745;91;20284;-83
2022/08/14 07:08:45;;;;;;;;;;;;;;;24.26;63.16;99761.77;1441571;91;20291;-83
2022/08/14 07:11:12;;;;;;;;;;;;;;;24.34;61.20;99755.10;1434077;91;20283;-83
2022/08/14 07:13:38;;;;;;;;;;;;;;;24.43;61.57;99759.55;1443462;91;20328;-83
2022/08/14 07:16:04;;;;;;;;;;;;;;;24.60;62.75;99763.47;1437486;91;20270;-83
2022/08/14 07:18:32;;;;;;;;;;;;;;;24.75;62.21;99754.97;1443505;90;20293;-83
2022/08/14 07:21:01;;;;;;;;;;;;;;;24.94;61.26;99757.28;1434886;91;20272;-82
2022/08/14 07:23:27;;;;;;;;;;;;;;;24.99;60.75;99753.27;1438703;90;20300;-83
2022/08/14 07:25:56;;;;;;;;;;;;;;;25.16;61.46;99760.73;1442637;91;20220;-83
2022/08/14 07:28:25;;;;;;;;;;;;;;;25.12;58.81;99760.95;1437658;91;20337;-83
2022/08/14 07:30:56;;;;;;;;;;;;;;;25.22;59.12;99756.17;1442181;91;20344;-83
2022/08/14 07:33:24;;;;;;;;;;;;;;;25.13;59.26;99754.45;1437377;91;20308;-83
2022/08/14 07:35:52;;;;;;;;;;;;;;;25.02;59.05;99750.58;1431939;91;20299;-83
2022/08/14 07:38:19;;;;;;;;;;;;;;;25.15;59.28;99750.98;1437856;91;20365;-83
2022/08/14 07:40:47;;;;;;;;;;;;;;;25.29;59.72;99750.52;1437884;91;20365;-82
2022/08/14 07:43:13;;;;;;;;;;;;;;;25.38;58.44;99744.91;1439862;91;20806;-82
2022/08/14 07:45:40;;;;;;;;;;;;;;;25.53;58.38;99747.70;1430811;91;20275;-83
2022/08/14 07:48:06;;;;;;;;;;;;;;;25.67;58.55;99745.34;1439234;91;20371;-83
2022/08/14 07:50:32;;;;;;;;;;;;;;;25.78;57.92;99742.95;1435383;91;20445;-83
2022/08/14 07:52:59;;;;;;;;;;;;;;;25.88;58.40;99738.12;1433697;91;20298;-83
2022/08/14 07:55:25;;;;;;;;;;;;;;;26.03;57.42;99728.69;1436174;91;20319;-85
2022/08/14 07:57:51;;;;;;;;;;;;;;;26.20;57.62;99733.08;1434601;91;20365;-83
2022/08/14 08:00:21;;;;;;;;;;;;;;;26.33;57.93;99729.31;1438449;91;20321;-82
2022/08/14 08:02:50;;;;;;;;;;;;;;;26.42;55.85;99727.44;1439908;91;20873;-83
2022/08/14 08:05:18;;;;;;;;;;;;;;;26.39;54.96;99727.97;1441650;89;20357;-83
2022/08/14 08:07:45;;;;;;;;;;;;;;;26.45;55.15;99722.83;1438837;91;20419;-84
2022/08/14 08:10:30;;;;;;;;;;;;;;;26.57;54.63;99724.76;1439683;91;20892;-85
2022/08/14 08:13:08;;;;;;;;;;;;;;;26.66;54.95;99723.67;1438369;91;20488;-84
2022/08/14 08:15:36;;;;;;;;;;;;;;;26.72;54.32;99719.33;1432290;91;20292;-83
2022/08/14 08:18:04;;;;;;;;;;;;;;;26.89;54.98;99720.41;1432716;91;20343;-84
2022/08/14 08:20:33;;;;;;;;;;;;;;;27.01;55.02;99715.50;1417812;91;20529;-85
2022/08/14 08:23:01;;;;;;;;;;;;;;;26.97;53.45;99719.05;1441914;91;20320;-84
2022/08/14 08:25:32;;;;;;;;;;;;;;;26.97;52.81;99707.65;1436000;91;20513;-84
2022/08/14 08:28:08;;;;;;;;;;;;;;;27.07;52.50;99711.43;1434020;91;20895;-83
2022/08/14 08:30:37;;;;;;;;;;;;;;;27.14;52.66;99705.99;1439017;90;20286;-82
2022/08/14 08:33:05;;;;;;;;;;;;;;;27.25;52.53;99709.55;1416352;91;20265;-82
2022/08/14 08:35:33;;;;;;;;;;;;;;;27.43;53.40;99700.78;1435336;91;20312;-81
2022/08/14 08:38:06;;;;;;;;;;;;;;;27.48;51.00;99700.48;1437623;90;20342;-82
2022/08/14 08:40:35;;;;;;;;;;;;;;;27.47;50.88;99700.23;1438364;91;20320;-81
2022/08/14 08:43:06;;;;;;;;;;;;;;;27.48;49.60;99707.28;1448660;91;20241;-81
2022/08/14 08:45:34;;;;;;;;;;;;;;;27.66;50.80;99702.06;1440065;91;20696;-81
2022/08/14 08:48:00;;;;;;;;;;;;;;;27.65;48.75;99692.84;1444555;91;20915;-81
2022/08/14 08:50:33;;;;;;;;;;;;;;;27.83;49.87;99690.88;1439249;91;20317;-81
2022/08/14 08:53:04;;;;;;;;;;;;;;;27.97;48.97;99691.08;1438447;91;20249;-82
2022/08/14 08:55:37;;;;;;;;;;;;;;;28.09;48.87;99686.65;1433969;91;20397;-83
2022/08/14 08:58:08;;;;;;;;;;;;;;;28.08;47.93;99689.09;1434539;91;20902;-82
2022/08/14 09:00:35;;;;;;;;;;;;;;;27.97;46.69;99684.83;1434939;91;20335;-82
2022/08/14 09:03:11;;;;;;;;;;;;;;;28.11;47.39;99681.75;1442559;91;20285;-82
2022/08/14 09:05:40;;;;;;;;;;;;;;;28.14;47.03;99674.39;1410898;91;20320;-82
2022/08/14 09:08:16;;;;;;;;;;;;;;;28.20;46.52;99674.61;1436307;91;20269;-81
2022/08/14 09:10:42;;;;;;;;;;;;;;;28.30;45.81;99675.88;1439633;91;20906;-81
2022/08/14 09:13:11;;;;;;;;;;;;;;;28.60;47.18;99673.23;1434985;91;21681;-81
2022/08/14 09:15:39;;;;;;;;;;;;;;;28.82;46.98;99670.05;1436228;91;20335;-81
2022/08/14 09:18:07;;;;;;;;;;;;;;;28.95;46.49;99670.20;1437189;91;20267;-81
2022/08/14 09:20:33;;;;;;;;;;;;;;;29.14;46.16;99666.75;1411728;91;20329;-81
2022/08/14 09:22:59;;;;;;;;;;;;;;;29.28;45.41;99665.52;1434590;91;20822;-82
2022/08/14 09:25:25;;;;;;;;;;;;;;;29.46;45.81;99663.38;1444088;91;20320;-82
2022/08/14 09:27:51;;;;;;;;;;;;;;;29.62;45.91;99663.48;1440108;91;20290;-82
2022/08/14 09:30:17;;;;;;;;;;;;;;;29.63;41.87;99659.64;1437021;91;20367;-82
2022/08/14 09:33:04;;;;;;;;;;;;;;;29.43;41.87;99651.17;1436121;91;20314;-81
2022/08/14 09:35:40;;;;;;;;;;;;;;;29.42;41.45;99658.27;1440382;91;20358;-81
2022/08/14 09:38:26;;;;;;;;;;;;;;;29.58;42.03;99656.17;1440627;91;20346;-82
2022/08/14 09:41:05;;;;;;;;;;;;;;;29.61;42.44;99652.30;1442772;91;20870;-82
2022/08/14 09:43:53;;;;;;;;;;;;;;;29.82;41.31;99643.87;1433005;91;20320;-82
2022/08/14 09:46:20;;;;;;;;;;;;;;;30.02;41.86;99642.20;1413380;92;20426;-80
2022/08/14 09:48:49;;;;;;;;;;;;;;;30.12;39.75;99642.06;1425573;91;20807;-80
2022/08/14 09:51:23;;;;;;;;;;;;;;;30.22;40.28;99643.04;1434337;91;20392;-80
2022/08/14 09:54:09;;;;;;;;;;;;;;;30.40;41.71;99634.55;1431731;91;20286;-81
2022/08/14 09:56:45;;;;;;;;;;;;;;;30.44;40.12;99632.31;1432017;91;20448;-81
2022/08/14 09:59:14;;;;;;;;;;;;;;;30.46;40.54;99624.61;1435148;91;20305;-80
2022/08/14 10:01:40;;;;;;;;;;;;;;;30.60;40.18;99625.21;1432250;91;20335;-80
2022/08/14 10:04:19;;;;;;;;;;;;;;;30.61;40.94;99624.09;1442943;91;21011;-81
2022/08/14 10:06:45;;;;;;;;;;;;;;;30.50;39.53;99620.19;1430911;89;20330;-95
2022/08/14 10:09:14;;;;;;;;;;;;;;;30.56;38.79;99624.45;1422908;88;20441;-95
2022/08/14 10:11:43;;;;;;;;;;;;;;;30.52;39.38;99611.68;1456574;86;20265;-96
2022/08/14 10:14:17;;;;;;;;;;;;;;;30.48;39.82;99611.48;1455602;88;20815;-95
2022/08/14 10:16:45;;;;;;;;;;;;;;;30.57;39.64;99611.04;1467253;87;20275;-94
2022/08/14 10:19:14;;;;;;;;;;;;;;;30.73;40.39;99606.69;1481864;88;20243;-94
2022/08/14 10:21:44;;;;;;;;;;;;;;;30.64;38.59;99601.64;1467623;88;20376;-94
2022/08/14 10:24:11;;;;;;;;;;;;;;;30.87;39.93;99596.59;1472475;88;20272;-95
2022/08/14 10:26:38;;;;;;;;;;;;;;;30.85;39.32;99594.73;1475106;88;20279;-96
2022/08/14 10:29:09;;;;;;;;;;;;;;;30.75;39.52;99597.61;1470881;87;20697;-96
2022/08/14 10:31:35;;;;;;;;;;;;;;;30.99;40.83;99597.48;1459888;88;20807;-95
2022/08/14 10:34:06;;;;;;;;;;;;;;;31.07;38.79;99597.30;1480943;87;20301;-95
2022/08/14 10:36:38;;;;;;;;;;;;;;;30.99;38.42;99597.48;1473262;87;20294;-96
2022/08/14 10:39:18;;;;;;;;;;;;;;;31.10;39.47;99596.13;1479959;87;20237;-95
2022/08/14 10:41:46;;;;;;;;;;;;;;;31.00;38.87;99593.62;1488463;87;20420;-94
2022/08/14 10:44:15;;;;;;;;;;;;;;;30.87;37.96;99595.22;1494586;87;20273;-96
2022/08/14 10:46:44;;;;;;;;;;;;;;;30.88;38.55;99599.59;1483362;87;20451;-96
2022/08/14 10:49:18;;;;;;;;;;;;;;;31.00;38.39;99592.25;1455608;87;20294;-96
2022/08/14 10:52:07;;;;;;;;;;;;;;;30.83;37.44;99594.22;1471189;87;20801;-95
2022/08/14 10:54:36;;;;;;;;;;;;;;;30.67;35.16;99592.84;1466567;88;20236;-95
2022/08/14 10:57:23;;;;;;;;;;;;;;;30.70;35.05;99597.17;1481481;87;20344;-96
2022/08/14 10:59:54;;;;;;;;;;;;;;;30.81;35.24;99586.88;1470243;87;20450;-95
2022/08/14 11:02:28;;;;;;;;;;;;;;;30.92;35.07;99593.76;1453362;86;20739;31
2022/08/14 11:05:13;;;;;;;;;;;;;;;31.10;34.81;99585.20;1471043;86;20307;-93
2022/08/14 11:07:42;;;;;;;;;;;;;;;30.92;34.38;99590.22;1477158;87;20346;-95
2022/08/14 11:10:11;;;;;;;;;;;;;;;30.93;35.75;99591.83;1487083;86;20261;-94
2022/08/14 11:12:55;;;;;;;;;;;;;;;30.95;36.86;99587.69;1487053;88;20272;-94
2022/08/14 11:15:26;;;;;;;;;;;;;;;31.06;35.75;99588.86;1480798;88;20363;-95
2022/08/14 11:17:58;;;;;;;;;;;;;;;31.33;36.69;99586.09;1472376;88;20230;-94
2022/08/14 11:20:26;;;;;;;;;;;;;;;31.49;35.82;99592.64;1492064;88;20331;-95
2022/08/14 11:22:57;;;;;;;;;;;;;;;31.57;34.60;99586.45;1475287;88;20313;-93
2022/08/14 11:25:25;;;;;;;;;;;;;;;31.55;34.38;99584.02;1471270;88;20262;-96
2022/08/14 11:27:54;;;;;;;;;;;;;;;31.67;35.19;99581.54;1468187;88;20260;-96
2022/08/14 11:30:22;;;;;;;;;;;;;;;31.87;34.80;99580.83;1490417;88;20316;-93
2022/08/14 11:32:49;;;;;;;;;;;;;;;32.05;34.70;99581.79;1462406;88;20267;-96
2022/08/14 11:35:18;;;;;;;;;;;;;;;31.96;33.04;99577.62;1468521;88;20767;-92
2022/08/14 11:38:01;;;;;;;;;;;;;;;32.24;35.12;99583.78;1486894;86;20758;-95
2022/08/14 11:40:33;;;;;;;;;;;;;;;32.28;32.53;99582.05;1466162;88;20832;-93
2022/08/14 11:45:38;;;;;;;;;;;;;;;32.33;33.46;99586.57;1412705;86;20228;31
2022/08/14 11:48:16;;;;;;;;;;;;;;;32.41;33.29;99575.43;1420822;89;20237;-95
2022/08/14 11:50:44;;;;;;;;;;;;;;;32.41;32.69;99572.69;1427996;89;20517;-93
2022/08/14 11:53:29;;;;;;;;;;;;;;;32.47;34.10;99566.79;1436618;88;21050;-91
2022/08/14 11:56:01;;;;;;;;;;;;;;;32.63;33.05;99572.69;1423996;89;21505;-93
2022/08/14 11:58:36;;;;;;;;;;;;;;;32.28;31.77;99573.00;1449509;87;20468;-96
2022/08/14 12:01:05;;;;;;;;;;;;;;;32.51;32.77;99566.96;1444709;89;20272;-92
2022/08/14 12:03:37;;;;;;;;;;;;;;;32.45;32.69;99565.45;1424172;86;20266;-94
2022/08/14 12:08:37;;;;;;;;;;;;;;;32.33;32.27;99572.31;1473609;87;20344;-93
2022/08/14 12:11:07;;;;;;;;;;;;;;;32.20;31.17;99565.01;1456754;86;21110;-91
2022/08/14 12:13:40;;;;;;;;;;;;;;;32.02;32.25;99557.78;1449157;89;20301;-95
2022/08/14 12:16:10;;;;;;;;;;;;;;;32.23;32.77;99561.64;1449154;86;21047;-93
2022/08/14 12:21:14;;;;;;;;;;;;;;;32.53;32.72;99553.20;1476419;86;20224;-95
2022/08/14 12:23:40;;;;;;;;;;;;;;;32.81;34.21;99544.22;1477412;86;20576;-96
2022/08/14 12:26:16;;;;;;;;;;;;;;;33.03;30.93;99537.88;1461721;87;20322;-96
2022/08/14 12:28:44;;;;;;;;;;;;;;;33.06;30.68;99537.80;1479165;88;20271;-93
2022/08/14 12:31:16;;;;;;;;;;;;;;;33.20;31.86;99534.37;1431858;89;20289;-93
2022/08/14 12:33:42;;;;;;;;;;;;;;;33.34;32.14;99533.40;1467429;88;20353;-95
2022/08/14 12:36:12;;;;;;;;;;;;;;;33.37;31.94;99536.87;1479502;88;20977;-96
2022/08/14 12:38:41;;;;;;;;;;;;;;;33.31;31.82;99539.53;1455501;88;20962;-93
2022/08/14 12:41:16;;;;;;;;;;;;;;;33.44;31.50;99533.90;1479545;88;20520;-93
2022/08/14 12:43:52;;;;;;;;;;;;;;;33.55;31.17;99522.63;1483945;88;20290;-95
2022/08/14 12:46:30;;;;;;;;;;;;;;;33.65;30.75;99524.48;1433676;88;20312;-94
2022/08/14 12:49:00;;;;;;;;;;;;;;;33.87;31.35;99516.64;1483376;88;21274;-91
2022/08/14 12:51:27;;;;;;;;;;;;;;;33.69;30.34;99521.89;1490210;88;20450;-89
2022/08/14 12:53:55;;;;;;;;;;;;;;;33.75;31.09;99514.30;1473974;88;20357;-90
2022/08/14 12:56:26;;;;;;;;;;;;;;;34.00;29.92;99506.60;1463126;88;20472;-90
2022/08/14 12:58:55;;;;;;;;;;;;;;;34.45;29.67;99500.69;1569468;88;20243;-90
2022/08/14 13:01:26;;;;;;;;;;;;;;;34.51;28.24;99499.36;1509867;88;20530;-90
2022/08/14 13:04:11;;;;;;;;;;;;;;;34.58;28.51;99499.70;1481558;88;20388;-89
2022/08/14 13:06:40;;;;;;;;;;;;;;;34.83;27.51;99490.83;1473928;88;20291;-88
2022/08/14 13:09:07;;;;;;;;;;;;;;;35.36;29.18;99497.05;1425956;88;21262;-89
2022/08/14 13:11:39;;;;;;;;;;;;;;;35.61;27.33;99493.85;1455255;88;20271;-89
2022/08/14 13:14:05;;;;;;;;;;;;;;;36.01;27.06;99482.86;1479792;88;20320;-86
2022/08/14 13:16:31;;;;;;;;;;;;;;;36.49;25.70;99492.38;1483306;87;20931;-89
2022/08/14 13:19:00;;;;;;;;;;;;;;;36.69;25.22;99484.59;1494126;87;20355;-84